Flugplatz Strausberg

Für EDAY sind keine METAR/TAF Berichte vorhanden.
Es werden die Flugwettermeldungen vom Flugplatz Berlin-Schönefeld International in 34 km Entfernung angezeigt.

Bericht für EDDB

vom 22.03. um 21:50 UTC

Wind 4 kt aus 130°

Sichtweite 6000 m

keine Wolken

Temperatur 6.0°C

Taupunkt 6.0°C

Luftfeuchtigkeit 100%

Luftdruck 1029 hPa

EDDB 222150Z 13004KT 6000 NSC 06/06 Q1029 TEMPO 4000 BR

Prognose für EDDB

vom 22.03. um 17:00 UTC

Zwischen 18:00 UTC und 22:00 UTC

Wind 4 kt aus 130°

Sichtweite 9000 m

keine Wolken


Zwischen 22:00 und 02:00 UTC übergehend zu

Wind 4 kt aus 130°

Sichtweite 2000 m

Nebelschwaden

keine Wolken


Am 23.03. zwischen 06:00 und 09:00 UTC übergehend zu

Wind 5 kt aus 250°

Sichtweite 10 km oder mehr

Nebelschwaden

keine Wolken


Am 23.03. zwischen 12:00 und 15:00 UTC übergehend zu

Wind 10 kt aus 320°

Sichtweite 10 km oder mehr

Nebelschwaden

keine Wolken

TAF EDDB 221700Z 2218/2318 13004KT 9000 NSC BECMG 2222/2302 2000 BCFG BECMG 2306/2309 25005KT 9999 BECMG 2312/2315 32010KT
Impressum